Time;durP1;ratioP1;P1;durP2;ratioP2;P2;SDS_P1;SDS_P2;PMS_P1;PMS_P2;Temp;Humidity;BMP_temperature;BMP_pressure;BME280_temperature;BME280_humidity;BME280_pressure;Samples;Min_cycle;Max_cycle;Signal;HPM_P1;HPM_P2
2021/08/18 00:00:57;;;;;;;4.75;1.67;;;;;;;;;;5021709;28;20124;-79
2021/08/18 00:03:23;;;;;;;4.13;1.45;;;;;;;;;;5033590;28;20077;-78
2021/08/18 00:05:49;;;;;;;5.03;1.80;;;;;;;;;;5035077;28;20063;-78
2021/08/18 00:08:16;;;;;;;5.32;1.52;;;;;;;;;;5028918;28;20459;-78
2021/08/18 00:10:44;;;;;;;4.00;1.63;;;;;;;;;;5023515;28;20068;-78
2021/08/18 00:13:11;;;;;;;3.45;1.63;;;;;;;;;;5023133;28;20732;-78
2021/08/18 00:15:38;;;;;;;5.10;1.40;;;;;;;;;;5029758;28;20037;-79
2021/08/18 00:18:05;;;;;;;3.78;1.83;;;;;;;;;;5025908;28;20057;-78
2021/08/18 00:20:34;;;;;;;3.88;1.35;;;;;;;;;;5012532;28;20057;-77
2021/08/18 00:23:01;;;;;;;5.38;1.70;;;;;;;;;;5017926;28;20089;-80
2021/08/18 00:25:27;;;;;;;4.40;1.58;;;;;;;;;;5023215;28;20806;-77
2021/08/18 00:27:54;;;;;;;3.88;1.55;;;;;;;;;;5026653;28;20057;-77
2021/08/18 00:30:21;;;;;;;6.05;1.52;;;;;;;;;;5032741;28;20088;-77
2021/08/18 00:32:47;;;;;;;2.75;1.40;;;;;;;;;;5030012;28;20066;-77
2021/08/18 00:35:14;;;;;;;4.55;1.50;;;;;;;;;;5024853;28;20080;-78
2021/08/18 00:37:40;;;;;;;3.92;1.70;;;;;;;;;;5024052;28;20068;-79
2021/08/18 00:40:07;;;;;;;5.32;1.70;;;;;;;;;;5024276;28;20065;-79
2021/08/18 00:42:34;;;;;;;3.42;1.70;;;;;;;;;;5025699;28;20052;-79
2021/08/18 00:45:01;;;;;;;5.97;1.95;;;;;;;;;;5020626;28;20444;-78
2021/08/18 00:47:27;;;;;;;4.30;1.50;;;;;;;;;;5031430;28;20520;-78
2021/08/18 00:49:54;;;;;;;4.60;1.73;;;;;;;;;;5013891;28;20089;-78
2021/08/18 00:52:20;;;;;;;5.97;1.95;;;;;;;;;;5020581;28;20061;-76
2021/08/18 00:54:47;;;;;;;4.90;1.80;;;;;;;;;;5016241;28;20060;-78
2021/08/18 00:57:13;;;;;;;3.85;1.67;;;;;;;;;;5016309;28;20570;-78
2021/08/18 00:59:39;;;;;;;5.50;1.85;;;;;;;;;;5025761;28;20050;-78
2021/08/18 01:02:06;;;;;;;5.05;1.73;;;;;;;;;;5021350;28;20466;-78
2021/08/18 01:04:32;;;;;;;5.00;1.90;;;;;;;;;;5022225;28;20061;-76
2021/08/18 01:06:59;;;;;;;4.15;1.92;;;;;;;;;;5020797;28;20064;-77
2021/08/18 01:09:25;;;;;;;4.20;2.00;;;;;;;;;;5015757;28;20158;-78
2021/08/18 01:11:52;;;;;;;5.75;1.80;;;;;;;;;;5019856;28;20452;-78
2021/08/18 01:14:19;;;;;;;4.75;1.77;;;;;;;;;;5035974;28;20057;-77
2021/08/18 01:16:47;;;;;;;3.55;1.55;;;;;;;;;;5022182;28;20492;-77
2021/08/18 01:19:15;;;;;;;5.20;1.90;;;;;;;;;;5020161;28;20083;-78
2021/08/18 01:21:42;;;;;;;4.25;1.75;;;;;;;;;;5018462;28;20061;-77
2021/08/18 01:24:09;;;;;;;4.22;1.70;;;;;;;;;;5021512;28;20069;-77
2021/08/18 01:26:37;;;;;;;5.78;1.80;;;;;;;;;;5028571;28;20069;-77
2021/08/18 01:29:04;;;;;;;5.20;1.83;;;;;;;;;;5016682;28;21474;-78
2021/08/18 01:31:31;;;;;;;6.03;2.13;;;;;;;;;;5021696;28;20046;-77
2021/08/18 01:34:02;;;;;;;4.95;1.85;;;;;;;;;;5028432;28;20088;-76
2021/08/18 01:36:29;;;;;;;8.25;1.88;;;;;;;;;;5021366;28;20122;-77
2021/08/18 01:39:06;;;;;;;5.95;1.70;;;;;;;;;;5016081;28;20069;-77
2021/08/18 01:41:32;;;;;;;7.55;1.85;;;;;;;;;;5021020;28;20151;-78
2021/08/18 01:43:59;;;;;;;5.63;1.67;;;;;;;;;;5018646;28;20073;-79
2021/08/18 01:46:25;;;;;;;6.50;2.00;;;;;;;;;;5019498;28;20157;-77
2021/08/18 01:48:52;;;;;;;4.38;1.73;;;;;;;;;;5031349;28;20567;-77
2021/08/18 01:51:19;;;;;;;6.53;1.92;;;;;;;;;;5028459;28;20076;-78
2021/08/18 01:53:46;;;;;;;5.78;2.30;;;;;;;;;;5018744;28;20064;-78
2021/08/18 01:56:16;;;;;;;4.43;2.15;;;;;;;;;;5016640;28;20178;-76
2021/08/18 01:58:43;;;;;;;6.50;1.75;;;;;;;;;;5012181;28;20073;-77
2021/08/18 02:01:12;;;;;;;4.72;1.75;;;;;;;;;;5030098;28;20131;-77
2021/08/18 02:03:38;;;;;;;6.40;1.85;;;;;;;;;;5014185;28;20073;-77
2021/08/18 02:06:04;;;;;;;4.47;1.67;;;;;;;;;;5022462;28;20056;-78
2021/08/18 02:08:31;;;;;;;4.70;2.10;;;;;;;;;;5023595;28;20127;-76
2021/08/18 02:10:57;;;;;;;5.13;1.88;;;;;;;;;;5017163;28;20061;-77
2021/08/18 02:13:24;;;;;;;3.25;1.63;;;;;;;;;;5013670;28;20069;-77
2021/08/18 02:15:50;;;;;;;5.20;1.90;;;;;;;;;;5010602;28;20449;-78
2021/08/18 02:18:17;;;;;;;3.00;1.50;;;;;;;;;;5013578;28;20147;-78
2021/08/18 02:20:45;;;;;;;5.00;1.75;;;;;;;;;;5022954;28;20065;-76
2021/08/18 02:23:12;;;;;;;4.15;1.77;;;;;;;;;;5013598;28;20069;-78
2021/08/18 02:25:38;;;;;;;6.43;2.05;;;;;;;;;;5012973;28;20061;-77
2021/08/18 02:28:05;;;;;;;4.97;1.98;;;;;;;;;;5019536;28;20116;-76
2021/08/18 02:30:32;;;;;;;3.38;1.70;;;;;;;;;;5012500;28;20069;-76
2021/08/18 02:32:59;;;;;;;6.00;1.60;;;;;;;;;;5019771;28;20065;-78
2021/08/18 02:35:26;;;;;;;5.53;2.00;;;;;;;;;;5023574;28;20158;-77
2021/08/18 02:37:53;;;;;;;3.60;1.80;;;;;;;;;;5015143;28;20054;-77
2021/08/18 02:40:20;;;;;;;4.68;1.75;;;;;;;;;;5017449;28;20445;-78
2021/08/18 02:42:47;;;;;;;4.43;1.63;;;;;;;;;;5010474;28;20127;-77
2021/08/18 02:45:13;;;;;;;4.50;1.70;;;;;;;;;;5019701;28;20072;-78
2021/08/18 02:47:40;;;;;;;4.07;1.80;;;;;;;;;;5011189;28;20202;-77
2021/08/18 02:50:07;;;;;;;3.90;1.60;;;;;;;;;;5017614;28;20451;-77
2021/08/18 02:52:34;;;;;;;4.93;1.80;;;;;;;;;;5020397;28;20119;-77
2021/08/18 02:55:00;;;;;;;4.05;1.65;;;;;;;;;;5031782;28;20037;-77
2021/08/18 02:57:27;;;;;;;4.63;1.98;;;;;;;;;;5019564;28;20045;-78
2021/08/18 02:59:55;;;;;;;8.60;1.90;;;;;;;;;;5012071;28;20057;-76
2021/08/18 03:02:22;;;;;;;5.45;2.03;;;;;;;;;;5018947;28;20095;-76
2021/08/18 03:04:48;;;;;;;3.78;1.75;;;;;;;;;;5017640;28;20604;-76
2021/08/18 03:07:15;;;;;;;3.78;1.42;;;;;;;;;;5015175;28;20152;-77
2021/08/18 03:09:41;;;;;;;5.93;2.00;;;;;;;;;;5011153;28;20065;-77
2021/08/18 03:12:10;;;;;;;4.85;2.00;;;;;;;;;;5013830;28;20069;-77
2021/08/18 03:14:36;;;;;;;4.22;1.63;;;;;;;;;;5021729;28;20057;-76
2021/08/18 03:17:03;;;;;;;3.70;1.48;;;;;;;;;;5020607;28;20296;-78
2021/08/18 03:19:29;;;;;;;5.18;2.00;;;;;;;;;;5020031;28;20065;-78
2021/08/18 03:21:56;;;;;;;4.43;1.70;;;;;;;;;;5019479;28;20060;-77
2021/08/18 03:24:22;;;;;;;3.47;1.70;;;;;;;;;;5031044;28;20061;-76
2021/08/18 03:26:49;;;;;;;4.57;1.75;;;;;;;;;;5015733;28;20115;-77
2021/08/18 03:29:15;;;;;;;7.78;2.38;;;;;;;;;;5018522;28;20072;-77
2021/08/18 03:31:42;;;;;;;4.45;1.75;;;;;;;;;;5014506;28;20475;-76
2021/08/18 03:34:08;;;;;;;7.32;1.73;;;;;;;;;;5025608;28;20104;-78
2021/08/18 03:36:34;;;;;;;5.47;2.05;;;;;;;;;;5020707;28;20081;-78
2021/08/18 03:39:01;;;;;;;4.18;1.90;;;;;;;;;;5023235;28;20489;-78
2021/08/18 03:41:27;;;;;;;5.95;2.10;;;;;;;;;;5024886;28;20068;-78
2021/08/18 03:43:54;;;;;;;5.13;1.70;;;;;;;;;;5031590;28;20081;-77
2021/08/18 03:46:20;;;;;;;3.83;2.00;;;;;;;;;;5020684;28;20158;-78
2021/08/18 03:48:46;;;;;;;5.50;1.90;;;;;;;;;;5018949;28;20052;-78
2021/08/18 03:51:13;;;;;;;5.28;2.45;;;;;;;;;;5024165;28;20065;-76
2021/08/18 03:53:39;;;;;;;4.97;1.92;;;;;;;;;;5011335;28;20058;-77
2021/08/18 03:56:06;;;;;;;5.65;1.90;;;;;;;;;;5009180;28;20469;-77
2021/08/18 03:58:32;;;;;;;4.03;1.90;;;;;;;;;;5017283;28;20053;-77
2021/08/18 04:00:58;;;;;;;5.65;1.90;;;;;;;;;;5013498;28;20054;-77
2021/08/18 04:03:25;;;;;;;5.15;2.00;;;;;;;;;;5023350;28;20072;-77
2021/08/18 04:05:51;;;;;;;5.13;2.03;;;;;;;;;;5018776;28;20057;-76
2021/08/18 04:08:18;;;;;;;6.20;1.98;;;;;;;;;;5008220;28;20830;-77
2021/08/18 04:10:45;;;;;;;6.63;2.35;;;;;;;;;;5021487;28;20069;-76
2021/08/18 04:13:11;;;;;;;5.03;1.80;;;;;;;;;;5023186;28;20454;-76
2021/08/18 04:15:41;;;;;;;3.42;1.80;;;;;;;;;;5030969;28;20065;-77
2021/08/18 04:18:10;;;;;;;5.68;1.83;;;;;;;;;;5026697;28;20065;-76
2021/08/18 04:20:37;;;;;;;5.90;1.90;;;;;;;;;;5023757;28;20318;-76
2021/08/18 04:23:04;;;;;;;8.27;2.30;;;;;;;;;;5017790;28;20073;-77
2021/08/18 04:25:31;;;;;;;6.03;2.10;;;;;;;;;;5020343;28;20158;-78
2021/08/18 04:27:57;;;;;;;6.63;2.55;;;;;;;;;;5014280;28;20057;-75
2021/08/18 04:30:24;;;;;;;8.70;2.60;;;;;;;;;;5012773;28;20111;-78
2021/08/18 04:32:51;;;;;;;6.82;2.50;;;;;;;;;;5017406;28;20058;-78
2021/08/18 04:35:19;;;;;;;7.63;2.85;;;;;;;;;;5007196;28;20528;-77
2021/08/18 04:37:46;;;;;;;6.78;2.47;;;;;;;;;;5024730;28;20143;-79
2021/08/18 04:40:13;;;;;;;6.55;2.45;;;;;;;;;;5011716;28;20061;-79
2021/08/18 04:42:41;;;;;;;7.13;2.40;;;;;;;;;;5023877;28;20087;-77
2021/08/18 04:45:08;;;;;;;5.80;2.50;;;;;;;;;;5020279;28;20073;-79
2021/08/18 04:47:35;;;;;;;7.85;3.00;;;;;;;;;;5023676;28;20127;-79
2021/08/18 04:50:02;;;;;;;6.45;2.40;;;;;;;;;;5017060;28;20122;-78
2021/08/18 04:52:28;;;;;;;6.88;2.90;;;;;;;;;;5016160;28;20068;-77
2021/08/18 04:54:55;;;;;;;6.47;2.10;;;;;;;;;;5014719;28;20080;-78
2021/08/18 04:57:21;;;;;;;9.77;2.35;;;;;;;;;;5023089;28;20057;-87
2021/08/18 04:59:48;;;;;;;6.13;2.50;;;;;;;;;;5020876;28;20101;-84
2021/08/18 05:02:14;;;;;;;6.45;2.55;;;;;;;;;;5020201;28;20068;-82
2021/08/18 05:04:40;;;;;;;9.07;2.97;;;;;;;;;;5013640;28;20101;-83
2021/08/18 05:07:07;;;;;;;7.45;2.78;;;;;;;;;;5017859;28;20072;-85
2021/08/18 05:09:33;;;;;;;8.55;3.03;;;;;;;;;;5015489;28;20077;-85
2021/08/18 05:12:00;;;;;;;9.88;2.55;;;;;;;;;;5013939;28;20062;-85
2021/08/18 05:14:26;;;;;;;9.55;2.83;;;;;;;;;;5018179;28;20580;-84
2021/08/18 05:16:53;;;;;;;9.52;3.00;;;;;;;;;;5012226;28;20065;-86
2021/08/18 05:19:19;;;;;;;8.55;2.67;;;;;;;;;;5018657;28;20053;-86
2021/08/18 05:21:46;;;;;;;6.95;3.00;;;;;;;;;;5016513;28;20059;-87
2021/08/18 05:24:12;;;;;;;5.38;2.33;;;;;;;;;;5029660;28;20127;-85
2021/08/18 05:26:38;;;;;;;5.88;2.80;;;;;;;;;;5023264;28;20057;-85
2021/08/18 05:29:05;;;;;;;8.73;2.20;;;;;;;;;;5019918;28;20061;-85
2021/08/18 05:31:31;;;;;;;8.02;2.30;;;;;;;;;;5025984;28;20053;-83
2021/08/18 05:33:58;;;;;;;6.65;1.98;;;;;;;;;;5031479;28;20137;-85
2021/08/18 05:36:24;;;;;;;8.25;2.08;;;;;;;;;;5011060;28;20076;-84
2021/08/18 05:38:50;;;;;;;12.20;2.20;;;;;;;;;;5027625;28;20086;-85
2021/08/18 05:41:17;;;;;;;5.30;2.20;;;;;;;;;;5022011;28;20068;-85
2021/08/18 05:43:43;;;;;;;6.30;2.15;;;;;;;;;;5016737;28;20070;-84
2021/08/18 05:46:10;;;;;;;7.10;2.03;;;;;;;;;;5016557;28;20057;-85
2021/08/18 05:48:36;;;;;;;6.18;2.20;;;;;;;;;;5009251;28;20064;-85
2021/08/18 05:51:02;;;;;;;6.70;2.35;;;;;;;;;;5022729;28;20481;-85
2021/08/18 05:53:30;;;;;;;6.40;2.47;;;;;;;;;;5021891;28;20072;-83
2021/08/18 05:55:56;;;;;;;6.95;2.47;;;;;;;;;;5015767;28;20058;-87
2021/08/18 05:58:22;;;;;;;8.65;2.50;;;;;;;;;;5017999;28;20064;-86
2021/08/18 06:00:49;;;;;;;5.63;2.75;;;;;;;;;;5018493;28;20053;-88
2021/08/18 06:03:15;;;;;;;8.20;2.40;;;;;;;;;;5015315;28;20065;-88
2021/08/18 06:05:42;;;;;;;5.35;2.42;;;;;;;;;;5027650;28;20081;-84
2021/08/18 06:08:08;;;;;;;3.90;2.00;;;;;;;;;;5027755;28;20065;-81
2021/08/18 06:10:35;;;;;;;8.73;2.63;;;;;;;;;;5019120;28;20076;-82
2021/08/18 06:13:02;;;;;;;7.50;2.30;;;;;;;;;;5020041;28;20060;-82
2021/08/18 06:15:29;;;;;;;6.15;2.60;;;;;;;;;;5015683;28;20092;-83
2021/08/18 06:17:55;;;;;;;9.23;2.45;;;;;;;;;;5016727;28;20065;-82
2021/08/18 06:20:22;;;;;;;7.75;2.53;;;;;;;;;;5030375;28;20127;-82
2021/08/18 06:22:49;;;;;;;4.60;1.95;;;;;;;;;;5024453;28;20057;-82
2021/08/18 06:25:15;;;;;;;11.45;2.78;;;;;;;;;;5029189;28;20535;-81
2021/08/18 06:27:42;;;;;;;3.55;1.92;;;;;;;;;;5024652;28;20069;-82
2021/08/18 06:30:09;;;;;;;8.40;2.50;;;;;;;;;;5023446;28;20052;-81
2021/08/18 06:32:36;;;;;;;4.97;2.17;;;;;;;;;;5013142;28;20563;-81
2021/08/18 06:35:02;;;;;;;5.85;1.95;;;;;;;;;;5027405;28;20077;-82
2021/08/18 06:37:29;;;;;;;7.63;2.25;;;;;;;;;;5016425;28;20061;-86
2021/08/18 06:39:55;;;;;;;6.05;2.20;;;;;;;;;;5015588;28;20163;-78
2021/08/18 06:42:22;;;;;;;5.47;1.92;;;;;;;;;;5012629;28;20069;-77
2021/08/18 06:44:49;;;;;;;5.38;1.90;;;;;;;;;;5013679;28;20099;-78
2021/08/18 06:47:16;;;;;;;6.18;2.20;;;;;;;;;;5012301;28;20049;-78
2021/08/18 06:49:42;;;;;;;4.82;2.00;;;;;;;;;;5009670;28;20505;-79
2021/08/18 06:52:09;;;;;;;6.28;2.17;;;;;;;;;;5008345;28;20409;-79
2021/08/18 06:54:35;;;;;;;4.53;1.70;;;;;;;;;;5013364;28;20066;-80
2021/08/18 06:57:01;;;;;;;6.10;2.20;;;;;;;;;;5013487;28;20779;-78
2021/08/18 06:59:28;;;;;;;4.25;2.28;;;;;;;;;;5012990;28;20068;-82
2021/08/18 07:01:55;;;;;;;5.45;1.98;;;;;;;;;;5019802;28;20068;-80
2021/08/18 07:04:22;;;;;;;4.00;1.85;;;;;;;;;;5025281;28;20595;-80
2021/08/18 07:06:48;;;;;;;4.28;1.80;;;;;;;;;;5011610;28;20068;-78
2021/08/18 07:09:15;;;;;;;5.43;1.95;;;;;;;;;;5014429;28;20509;-78
2021/08/18 07:11:41;;;;;;;3.85;1.83;;;;;;;;;;5017287;28;20141;-77
2021/08/18 07:14:07;;;;;;;3.47;1.90;;;;;;;;;;5016906;28;20072;-78
2021/08/18 07:16:35;;;;;;;4.55;1.85;;;;;;;;;;5013787;28;20449;-80
2021/08/18 07:19:01;;;;;;;5.70;1.98;;;;;;;;;;5020239;28;20053;-79
2021/08/18 07:21:28;;;;;;;4.40;1.88;;;;;;;;;;5018588;28;20594;-79
2021/08/18 07:23:55;;;;;;;4.40;1.80;;;;;;;;;;5019054;28;20080;-79
2021/08/18 07:26:25;;;;;;;4.32;2.00;;;;;;;;;;5034271;28;20084;-79
2021/08/18 07:28:51;;;;;;;3.35;1.77;;;;;;;;;;5026676;28;20068;-79
2021/08/18 07:31:18;;;;;;;3.53;1.90;;;;;;;;;;5022051;28;20065;-79
2021/08/18 07:33:44;;;;;;;5.55;2.15;;;;;;;;;;5019813;28;20084;-78
2021/08/18 07:36:11;;;;;;;5.57;1.88;;;;;;;;;;5020672;28;20061;-79
2021/08/18 07:38:37;;;;;;;4.72;2.10;;;;;;;;;;5025783;28;20069;-79
2021/08/18 07:41:04;;;;;;;3.95;1.80;;;;;;;;;;5026369;28;20091;-79
2021/08/18 07:43:30;;;;;;;4.75;2.10;;;;;;;;;;5014146;28;20041;-79
2021/08/18 07:45:57;;;;;;;4.13;2.10;;;;;;;;;;5013602;28;20134;-78
2021/08/18 07:48:23;;;;;;;5.40;2.05;;;;;;;;;;5022248;28;20511;-79
2021/08/18 07:50:50;;;;;;;5.85;2.20;;;;;;;;;;5013496;28;20071;-79
2021/08/18 07:53:16;;;;;;;5.50;2.15;;;;;;;;;;5014462;28;20099;-79
2021/08/18 07:55:43;;;;;;;6.28;2.17;;;;;;;;;;5022213;28;20056;-79
2021/08/18 07:58:09;;;;;;;3.40;1.70;;;;;;;;;;5024408;28;20512;-79
2021/08/18 08:00:39;;;;;;;3.88;1.58;;;;;;;;;;5026734;28;20074;-79
2021/08/18 08:03:07;;;;;;;4.40;2.08;;;;;;;;;;5021436;28;20078;-80
2021/08/18 08:05:34;;;;;;;5.38;2.03;;;;;;;;;;5011608;28;20065;-79
2021/08/18 08:08:00;;;;;;;3.80;1.70;;;;;;;;;;5025054;28;20508;-79
2021/08/18 08:10:27;;;;;;;5.38;1.80;;;;;;;;;;5011205;28;20136;-79
2021/08/18 08:12:56;;;;;;;5.70;2.25;;;;;;;;;;5009235;28;20029;-80
2021/08/18 08:15:22;;;;;;;3.50;2.42;;;;;;;;;;5016660;28;20107;-80
2021/08/18 08:17:49;;;;;;;3.50;1.83;;;;;;;;;;5011039;28;20069;-79
2021/08/18 08:20:15;;;;;;;4.93;2.22;;;;;;;;;;5015838;28;20069;-79
2021/08/18 08:22:42;;;;;;;4.10;2.00;;;;;;;;;;5010959;28;20057;-79
2021/08/18 08:25:08;;;;;;;4.55;1.73;;;;;;;;;;5011037;28;20153;-79
2021/08/18 08:27:35;;;;;;;4.43;1.95;;;;;;;;;;5010771;28;20497;-79
2021/08/18 08:30:01;;;;;;;4.15;2.00;;;;;;;;;;5012783;28;20115;-79
2021/08/18 08:32:28;;;;;;;3.95;1.98;;;;;;;;;;5014885;28;20081;-78
2021/08/18 08:34:54;;;;;;;6.10;2.15;;;;;;;;;;5008434;28;20062;-78
2021/08/18 08:37:22;;;;;;;5.15;2.20;;;;;;;;;;5019971;28;20487;-79
2021/08/18 08:39:48;;;;;;;4.50;2.10;;;;;;;;;;5014009;28;20066;-77
2021/08/18 08:42:15;;;;;;;4.57;1.92;;;;;;;;;;5011566;28;20080;-78
2021/08/18 08:44:41;;;;;;;5.43;2.67;;;;;;;;;;5012273;28;20120;-78
2021/08/18 08:47:08;;;;;;;3.63;1.90;;;;;;;;;;5012125;28;20752;-78
2021/08/18 08:49:35;;;;;;;3.75;1.80;;;;;;;;;;5011104;28;20069;-77
2021/08/18 08:52:01;;;;;;;3.80;1.90;;;;;;;;;;5026064;28;20065;-79
2021/08/18 08:54:27;;;;;;;4.10;1.88;;;;;;;;;;5017820;28;20073;-79
2021/08/18 08:56:54;;;;;;;3.55;1.88;;;;;;;;;;5016868;28;20049;-78
2021/08/18 08:59:20;;;;;;;5.22;2.35;;;;;;;;;;5017108;28;20557;-78
2021/08/18 09:02:06;;;;;;;3.30;1.55;;;;;;;;;;5020731;28;20383;-78
2021/08/18 09:04:39;;;;;;;4.50;2.00;;;;;;;;;;5010103;28;20095;-80
2021/08/18 09:07:05;;;;;;;5.50;1.98;;;;;;;;;;5017513;28;20045;-79
2021/08/18 09:09:32;;;;;;;5.10;2.22;;;;;;;;;;5016689;28;20494;-77
2021/08/18 09:12:06;;;;;;;2.95;1.60;;;;;;;;;;5024995;28;20057;-79
2021/08/18 09:14:32;;;;;;;4.13;1.70;;;;;;;;;;5016214;28;20110;-80
2021/08/18 09:16:58;;;;;;;4.50;2.00;;;;;;;;;;5017111;28;20061;-78
2021/08/18 09:19:31;;;;;;;3.97;1.73;;;;;;;;;;5022587;28;20068;-78
2021/08/18 09:22:05;;;;;;;3.70;2.10;;;;;;;;;;5017557;28;20598;-78
2021/08/18 09:24:31;;;;;;;2.85;1.95;;;;;;;;;;5021689;28;20567;-79
2021/08/18 09:27:00;;;;;;;5.13;1.90;;;;;;;;;;5018837;28;20076;-78
2021/08/18 09:29:44;;;;;;;6.03;1.70;;;;;;;;;;5014849;28;20057;-79
2021/08/18 09:32:20;;;;;;;4.85;1.73;;;;;;;;;;4995557;28;21364;-78
2021/08/18 09:34:50;;;;;;;3.65;1.67;;;;;;;;;;4997045;28;20085;-78
2021/08/18 09:37:16;;;;;;;4.70;1.90;;;;;;;;;;5000834;28;20038;-79
2021/08/18 09:39:43;;;;;;;4.80;2.03;;;;;;;;;;5010883;28;20319;-79
2021/08/18 09:42:26;;;;;;;5.32;2.75;;;;;;;;;;5012330;28;20080;-78
2021/08/18 09:45:12;;;;;;;3.42;1.90;;;;;;;;;;4994060;28;20088;-79
2021/08/18 09:47:59;;;;;;;4.07;1.95;;;;;;;;;;4995766;28;20080;-77
2021/08/18 09:50:26;;;;;;;5.32;1.90;;;;;;;;;;5002286;28;20061;-79
2021/08/18 09:52:53;;;;;;;3.65;1.80;;;;;;;;;;4989873;28;20609;-80
2021/08/18 09:55:24;;;;;;;3.58;1.90;;;;;;;;;;5006575;28;20135;-80
2021/08/18 09:57:51;;;;;;;5.57;2.10;;;;;;;;;;5006674;28;20118;-79
2021/08/18 10:00:18;;;;;;;4.82;1.83;;;;;;;;;;5011399;28;20866;-79
2021/08/18 10:02:45;;;;;;;3.88;1.83;;;;;;;;;;5009506;28;20064;-77
2021/08/18 10:05:12;;;;;;;5.05;2.22;;;;;;;;;;5003453;28;20084;-77
2021/08/18 10:07:39;;;;;;;4.28;1.80;;;;;;;;;;4999700;28;20576;-78
2021/08/18 10:10:06;;;;;;;4.97;1.90;;;;;;;;;;4996565;28;20124;-79
2021/08/18 10:12:32;;;;;;;4.72;1.88;;;;;;;;;;5002726;28;20120;-79
2021/08/18 10:15:02;;;;;;;4.65;1.73;;;;;;;;;;5000736;28;20571;-80
2021/08/18 10:17:32;;;;;;;4.30;2.05;;;;;;;;;;5013118;28;20113;-78
2021/08/18 10:19:59;;;;;;;4.15;1.95;;;;;;;;;;5008528;28;20066;-79
2021/08/18 10:22:29;;;;;;;3.85;1.90;;;;;;;;;;4988743;28;20058;-79
2021/08/18 10:24:55;;;;;;;5.15;1.90;;;;;;;;;;5003795;28;20074;-78
2021/08/18 10:27:45;;;;;;;5.50;1.80;;;;;;;;;;4992595;28;20051;-79
2021/08/18 10:30:21;;;;;;;3.55;1.60;;;;;;;;;;5011641;28;21421;-78
2021/08/18 10:32:47;;;;;;;4.07;1.85;;;;;;;;;;5001516;28;20077;-78
2021/08/18 10:35:32;;;;;;;3.35;1.60;;;;;;;;;;5017380;28;20123;-78
2021/08/18 10:38:18;;;;;;;4.38;1.83;;;;;;;;;;5014759;28;20458;-79
2021/08/18 10:40:44;;;;;;;3.95;1.60;;;;;;;;;;5013919;28;20041;-79
2021/08/18 10:43:11;;;;;;;5.18;1.67;;;;;;;;;;5023759;28;20526;-79
2021/08/18 10:45:37;;;;;;;3.97;1.80;;;;;;;;;;5016633;28;20139;-79
2021/08/18 10:48:04;;;;;;;3.38;1.70;;;;;;;;;;4999656;28;20066;-78
2021/08/18 10:50:41;;;;;;;4.57;1.70;;;;;;;;;;5020446;28;20041;-79
2021/08/18 10:53:27;;;;;;;5.38;2.13;;;;;;;;;;5023541;28;21434;-78
2021/08/18 10:55:53;;;;;;;3.85;1.50;;;;;;;;;;5018504;28;20069;-79
2021/08/18 10:58:30;;;;;;;4.80;1.67;;;;;;;;;;5035148;28;20562;-77
2021/08/18 11:00:57;;;;;;;3.20;1.60;;;;;;;;;;5021411;28;20068;-80
2021/08/18 11:03:30;;;;;;;4.70;1.75;;;;;;;;;;5016229;28;20061;-78
2021/08/18 11:05:58;;;;;;;3.03;1.60;;;;;;;;;;5017432;28;20830;-79
2021/08/18 11:08:25;;;;;;;3.10;1.75;;;;;;;;;;5013806;28;20042;-80
2021/08/18 11:10:54;;;;;;;3.03;1.75;;;;;;;;;;5015345;28;20452;-80
2021/08/18 11:13:39;;;;;;;3.88;1.75;;;;;;;;;;5012414;28;20860;-78
2021/08/18 11:16:10;;;;;;;2.88;1.40;;;;;;;;;;5021672;28;20645;-79
2021/08/18 11:18:37;;;;;;;3.17;1.70;;;;;;;;;;5014119;28;20061;-77
2021/08/18 11:21:03;;;;;;;5.00;1.50;;;;;;;;;;5021378;28;20058;-78
2021/08/18 11:23:31;;;;;;;5.35;1.73;;;;;;;;;;5022294;28;20115;-79
2021/08/18 11:25:58;;;;;;;3.13;1.70;;;;;;;;;;5022861;28;20076;-78
2021/08/18 11:28:26;;;;;;;3.33;1.60;;;;;;;;;;5022345;28;20065;-77
2021/08/18 11:31:04;;;;;;;2.88;1.50;;;;;;;;;;5024417;28;20143;-77
2021/08/18 11:33:32;;;;;;;3.78;2.00;;;;;;;;;;5017394;28;20085;-76
2021/08/18 11:36:00;;;;;;;2.33;1.27;;;;;;;;;;5015037;28;20127;-78
2021/08/18 11:38:26;;;;;;;3.58;1.50;;;;;;;;;;5013469;28;20108;-78
2021/08/18 11:40:54;;;;;;;2.33;1.40;;;;;;;;;;5025729;28;20060;-79
2021/08/18 11:43:40;;;;;;;3.53;1.58;;;;;;;;;;5017833;28;20598;-77
2021/08/18 11:46:07;;;;;;;3.10;1.50;;;;;;;;;;5014013;28;20118;-78
2021/08/18 11:48:34;;;;;;;5.22;1.60;;;;;;;;;;5016499;28;20061;-78
2021/08/18 11:51:01;;;;;;;2.42;1.40;;;;;;;;;;5015171;28;20068;-79
2021/08/18 11:53:28;;;;;;;4.00;1.50;;;;;;;;;;5009042;28;20065;-79
2021/08/18 11:56:02;;;;;;;3.90;1.70;;;;;;;;;;5022971;28;20072;-78
2021/08/18 11:58:32;;;;;;;3.47;1.70;;;;;;;;;;5019068;28;20065;-78
2021/08/18 12:00:59;;;;;;;3.92;1.70;;;;;;;;;;5014496;28;20069;-79
2021/08/18 12:03:26;;;;;;;5.28;1.77;;;;;;;;;;5015873;28;20054;-77
2021/08/18 12:05:59;;;;;;;5.30;1.80;;;;;;;;;;5016588;28;20069;-78
2021/08/18 12:08:39;;;;;;;3.25;1.67;;;;;;;;;;5013749;28;20064;-78
2021/08/18 12:11:06;;;;;;;3.38;1.60;;;;;;;;;;5006109;28;20060;-78
2021/08/18 12:13:44;;;;;;;2.97;1.42;;;;;;;;;;5032611;28;20932;-79
2021/08/18 12:16:42;;;;;;;3.45;1.70;;;;;;;;;;5019590;28;20077;-79
2021/08/18 12:19:16;;;;;;;3.90;1.48;;;;;;;;;;5016926;28;20437;-78
2021/08/18 12:21:43;;;;;;;3.85;1.60;;;;;;;;;;5020193;28;20430;-78
2021/08/18 12:24:17;;;;;;;3.75;1.67;;;;;;;;;;5018528;28;20107;-77
2021/08/18 12:26:46;;;;;;;2.85;1.50;;;;;;;;;;5012617;28;20164;-78
2021/08/18 12:29:17;;;;;;;2.72;1.58;;;;;;;;;;5018663;28;20531;-78
2021/08/18 12:32:02;;;;;;;3.08;1.58;;;;;;;;;;5018085;28;20065;-77
2021/08/18 12:34:34;;;;;;;3.90;1.42;;;;;;;;;;5016651;28;20481;-79
2021/08/18 12:37:08;;;;;;;5.10;1.67;;;;;;;;;;5013660;28;20644;-78
2021/08/18 12:39:36;;;;;;;3.30;1.48;;;;;;;;;;5016496;28;20065;-78
2021/08/18 12:42:03;;;;;;;2.92;1.55;;;;;;;;;;5015516;28;20079;-77
2021/08/18 12:44:34;;;;;;;5.38;1.70;;;;;;;;;;5021734;28;20057;-88
2021/08/18 12:47:04;;;;;;;4.90;1.80;;;;;;;;;;5013725;28;20077;-89
2021/08/18 12:49:33;;;;;;;4.63;1.80;;;;;;;;;;5019942;28;20034;-90
2021/08/18 12:52:01;;;;;;;3.95;1.65;;;;;;;;;;5016431;28;20066;-91
2021/08/18 12:54:28;;;;;;;4.60;2.20;;;;;;;;;;5025683;28;20454;-85
2021/08/18 12:56:55;;;;;;;3.63;1.65;;;;;;;;;;5018290;28;20045;-87
2021/08/18 12:59:21;;;;;;;5.18;1.95;;;;;;;;;;5019582;28;20069;-87
2021/08/18 13:01:48;;;;;;;6.60;1.90;;;;;;;;;;5019984;28;20054;-88
2021/08/18 13:04:14;;;;;;;4.93;2.00;;;;;;;;;;5012904;28;20182;-89
2021/08/18 13:06:40;;;;;;;4.65;2.10;;;;;;;;;;5012952;28;20080;-80
2021/08/18 13:09:07;;;;;;;4.95;1.90;;;;;;;;;;5022411;28;20057;-85
2021/08/18 13:11:33;;;;;;;5.40;1.90;;;;;;;;;;5020418;28;20062;-87
2021/08/18 13:14:00;;;;;;;5.18;1.73;;;;;;;;;;5019650;28;20049;-86
2021/08/18 13:16:26;;;;;;;5.60;1.80;;;;;;;;;;5030509;28;20060;-88
2021/08/18 13:18:53;;;;;;;5.45;1.90;;;;;;;;;;5018875;28;20127;-90
2021/08/18 13:21:19;;;;;;;5.78;1.73;;;;;;;;;;5018259;28;20026;-89
2021/08/18 13:23:45;;;;;;;5.18;2.42;;;;;;;;;;5021960;28;20072;-88
2021/08/18 13:26:12;;;;;;;5.85;2.28;;;;;;;;;;5015061;28;20147;-87
2021/08/18 13:28:40;;;;;;;4.38;1.65;;;;;;;;;;5014231;28;20064;-88
2021/08/18 13:31:06;;;;;;;4.55;2.00;;;;;;;;;;5017206;28;20330;-89
2021/08/18 13:33:33;;;;;;;4.95;1.73;;;;;;;;;;5018424;28;20112;-90
2021/08/18 13:36:00;;;;;;;3.53;1.98;;;;;;;;;;5015420;28;20505;-87
2021/08/18 13:38:28;;;;;;;6.38;1.95;;;;;;;;;;5014979;28;20069;-88
2021/08/18 13:40:55;;;;;;;3.65;1.80;;;;;;;;;;5018844;28;20081;-88
2021/08/18 13:43:22;;;;;;;4.60;2.00;;;;;;;;;;5014925;28;20065;-91
2021/08/18 13:45:48;;;;;;;6.00;1.70;;;;;;;;;;5017405;28;20073;-87
2021/08/18 13:48:14;;;;;;;3.47;1.73;;;;;;;;;;5021694;28;20107;-89
2021/08/18 13:50:41;;;;;;;4.80;1.95;;;;;;;;;;5014214;28;20808;-83
2021/08/18 13:53:07;;;;;;;4.63;1.92;;;;;;;;;;5011020;28;20123;-83
2021/08/18 13:55:35;;;;;;;4.90;2.03;;;;;;;;;;5020306;28;20067;-85
2021/08/18 13:58:01;;;;;;;4.88;2.10;;;;;;;;;;5015558;28;20061;-86
2021/08/18 14:00:27;;;;;;;5.03;2.03;;;;;;;;;;5028021;28;20114;-89
2021/08/18 14:02:54;;;;;;;5.18;2.13;;;;;;;;;;5026105;28;20053;-89
2021/08/18 14:05:22;;;;;;;3.92;1.85;;;;;;;;;;5019177;28;20481;-87
2021/08/18 14:07:49;;;;;;;3.58;1.63;;;;;;;;;;5024339;28;20061;-88
2021/08/18 14:10:15;;;;;;;4.22;1.92;;;;;;;;;;5022558;28;20071;-88
2021/08/18 14:12:41;;;;;;;4.78;1.80;;;;;;;;;;4991877;28;20120;-88
2021/08/18 14:15:08;;;;;;;3.03;1.58;;;;;;;;;;4994387;28;20050;-89
2021/08/18 14:17:34;;;;;;;4.05;1.85;;;;;;;;;;4998887;28;20075;-89
2021/08/18 14:20:02;;;;;;;5.20;1.90;;;;;;;;;;5013548;28;20062;-88
2021/08/18 14:22:28;;;;;;;3.97;1.50;;;;;;;;;;4991261;28;20054;-89
2021/08/18 14:24:55;;;;;;;5.07;1.50;;;;;;;;;;5004754;28;20809;-90
2021/08/18 14:27:21;;;;;;;5.05;1.63;;;;;;;;;;4999622;28;20186;-88
2021/08/18 14:29:48;;;;;;;3.60;1.60;;;;;;;;;;4999963;28;20219;-88
2021/08/18 14:32:14;;;;;;;3.97;1.50;;;;;;;;;;4996296;28;20457;-88
2021/08/18 14:34:40;;;;;;;5.30;1.77;;;;;;;;;;5013291;28;20069;-89
2021/08/18 14:37:07;;;;;;;4.47;1.92;;;;;;;;;;5018129;28;20143;-87
2021/08/18 14:39:33;;;;;;;4.95;1.95;;;;;;;;;;5022308;28;20069;-88
2021/08/18 14:42:01;;;;;;;3.63;1.92;;;;;;;;;;5011467;28;20068;-89
2021/08/18 14:44:27;;;;;;;3.78;1.52;;;;;;;;;;5018096;28;20527;-87
2021/08/18 14:46:54;;;;;;;4.25;1.60;;;;;;;;;;5011514;28;20119;-89